sensor_id;sensor_type;location;lat;lon;timestamp;temperature;humidity
67249;SHT31;63247;54.300;18.592;2022-09-09T00:00:18;14.01;72.00
67249;SHT31;63247;54.300;18.592;2022-09-09T00:05:44;13.94;72.21
67249;SHT31;63247;54.300;18.592;2022-09-09T00:11:05;13.94;72.27
67249;SHT31;63247;54.300;18.592;2022-09-09T00:18:49;13.88;72.36
67249;SHT31;63247;54.300;18.592;2022-09-09T00:21:17;13.78;72.65
67249;SHT31;63247;54.300;18.592;2022-09-09T00:23:47;13.86;72.32
67249;SHT31;63247;54.300;18.592;2022-09-09T00:26:39;13.79;72.63
67249;SHT31;63247;54.300;18.592;2022-09-09T00:31:35;13.83;72.35
67249;SHT31;63247;54.300;18.592;2022-09-09T00:36:32;13.82;72.38
67249;SHT31;63247;54.300;18.592;2022-09-09T00:39:01;13.77;72.57
67249;SHT31;63247;54.300;18.592;2022-09-09T00:44:32;13.81;72.24
67249;SHT31;63247;54.300;18.592;2022-09-09T00:50:16;13.82;72.35
67249;SHT31;63247;54.300;18.592;2022-09-09T00:53:53;13.79;72.47
67249;SHT31;63247;54.300;18.592;2022-09-09T00:58:30;13.94;72.04
67249;SHT31;63247;54.300;18.592;2022-09-09T01:01:05;13.94;71.98
67249;SHT31;63247;54.300;18.592;2022-09-09T01:03:38;13.95;71.80
67249;SHT31;63247;54.300;18.592;2022-09-09T01:06:26;13.92;72.10
67249;SHT31;63247;54.300;18.592;2022-09-09T01:11:38;13.92;71.81
67249;SHT31;63247;54.300;18.592;2022-09-09T01:14:47;13.90;71.88
67249;SHT31;63247;54.300;18.592;2022-09-09T01:17:32;13.86;72.00
67249;SHT31;63247;54.300;18.592;2022-09-09T01:25:29;13.85;72.26
67249;SHT31;63247;54.300;18.592;2022-09-09T01:28:05;13.89;71.86
67249;SHT31;63247;54.300;18.592;2022-09-09T01:30:37;13.79;72.32
67249;SHT31;63247;54.300;18.592;2022-09-09T01:33:03;13.82;72.28
67249;SHT31;63247;54.300;18.592;2022-09-09T01:38:06;13.82;72.29
67249;SHT31;63247;54.300;18.592;2022-09-09T01:40:32;13.85;72.08
67249;SHT31;63247;54.300;18.592;2022-09-09T01:42:58;13.88;72.06
67249;SHT31;63247;54.300;18.592;2022-09-09T01:45:24;13.90;72.07
67249;SHT31;63247;54.300;18.592;2022-09-09T01:47:52;13.85;72.07
67249;SHT31;63247;54.300;18.592;2022-09-09T01:50:19;13.86;72.13
67249;SHT31;63247;54.300;18.592;2022-09-09T01:52:46;13.86;72.17
67249;SHT31;63247;54.300;18.592;2022-09-09T01:55:12;13.86;72.07
67249;SHT31;63247;54.300;18.592;2022-09-09T02:00:14;13.88;72.28
67249;SHT31;63247;54.300;18.592;2022-09-09T02:08:13;13.83;72.21
67249;SHT31;63247;54.300;18.592;2022-09-09T02:10:45;13.79;72.50
67249;SHT31;63247;54.300;18.592;2022-09-09T02:13:14;13.77;72.37
67249;SHT31;63247;54.300;18.592;2022-09-09T02:18:12;13.79;72.44
67249;SHT31;63247;54.300;18.592;2022-09-09T02:20:39;13.77;72.44
67249;SHT31;63247;54.300;18.592;2022-09-09T02:23:07;13.81;72.48
67249;SHT31;63247;54.300;18.592;2022-09-09T02:25:35;13.82;72.41
67249;SHT31;63247;54.300;18.592;2022-09-09T02:28:04;13.68;72.61
67249;SHT31;63247;54.300;18.592;2022-09-09T02:30:32;13.79;72.56
67249;SHT31;63247;54.300;18.592;2022-09-09T02:33:01;13.75;72.64
67249;SHT31;63247;54.300;18.592;2022-09-09T02:35:30;13.69;72.98
67249;SHT31;63247;54.300;18.592;2022-09-09T02:38:01;13.64;73.17
67249;SHT31;63247;54.300;18.592;2022-09-09T02:40:28;13.61;73.52
67249;SHT31;63247;54.300;18.592;2022-09-09T02:42:54;13.67;73.03
67249;SHT31;63247;54.300;18.592;2022-09-09T02:45:26;13.60;73.30
67249;SHT31;63247;54.300;18.592;2022-09-09T02:48:12;13.67;73.01
67249;SHT31;63247;54.300;18.592;2022-09-09T02:56:21;13.58;73.68
67249;SHT31;63247;54.300;18.592;2022-09-09T02:58:48;13.50;74.19
67249;SHT31;63247;54.300;18.592;2022-09-09T03:01:14;13.47;74.39
67249;SHT31;63247;54.300;18.592;2022-09-09T03:03:40;13.47;74.31
67249;SHT31;63247;54.300;18.592;2022-09-09T03:06:07;13.48;74.18
67249;SHT31;63247;54.300;18.592;2022-09-09T03:08:33;13.37;75.48
67249;SHT31;63247;54.300;18.592;2022-09-09T03:10:59;13.14;76.68
67249;SHT31;63247;54.300;18.592;2022-09-09T03:13:26;12.86;79.06
67249;SHT31;63247;54.300;18.592;2022-09-09T03:15:52;12.46;81.83
67249;SHT31;63247;54.300;18.592;2022-09-09T03:18:17;12.21;84.57
67249;SHT31;63247;54.300;18.592;2022-09-09T03:20:43;11.87;87.98
67249;SHT31;63247;54.300;18.592;2022-09-09T03:23:08;11.70;90.55
67249;SHT31;63247;54.300;18.592;2022-09-09T03:25:34;11.46;92.77
67249;SHT31;63247;54.300;18.592;2022-09-09T03:28:01;11.38;94.01
67249;SHT31;63247;54.300;18.592;2022-09-09T03:30:27;11.32;94.54
67249;SHT31;63247;54.300;18.592;2022-09-09T03:32:53;11.38;94.20
67249;SHT31;63247;54.300;18.592;2022-09-09T03:35:18;11.34;94.25
67249;SHT31;63247;54.300;18.592;2022-09-09T03:37:44;11.27;94.49
67249;SHT31;63247;54.300;18.592;2022-09-09T03:40:10;11.22;94.50
67249;SHT31;63247;54.300;18.592;2022-09-09T03:42:37;11.19;94.93
67249;SHT31;63247;54.300;18.592;2022-09-09T03:45:09;11.12;95.58
67249;SHT31;63247;54.300;18.592;2022-09-09T03:47:36;11.12;95.43
67249;SHT31;63247;54.300;18.592;2022-09-09T03:50:03;11.12;96.03
67249;SHT31;63247;54.300;18.592;2022-09-09T03:52:29;11.10;96.07
67249;SHT31;63247;54.300;18.592;2022-09-09T03:54:55;11.08;96.30
67249;SHT31;63247;54.300;18.592;2022-09-09T03:57:22;11.03;96.54
67249;SHT31;63247;54.300;18.592;2022-09-09T03:59:48;11.01;97.12
67249;SHT31;63247;54.300;18.592;2022-09-09T04:02:13;11.03;97.32
67249;SHT31;63247;54.300;18.592;2022-09-09T04:04:39;11.00;97.27
67249;SHT31;63247;54.300;18.592;2022-09-09T04:07:04;11.03;97.29
67249;SHT31;63247;54.300;18.592;2022-09-09T04:09:32;10.97;97.17
67249;SHT31;63247;54.300;18.592;2022-09-09T04:11:57;10.98;97.59
67249;SHT31;63247;54.300;18.592;2022-09-09T04:14:23;11.01;97.63
67249;SHT31;63247;54.300;18.592;2022-09-09T04:16:53;11.07;97.70
67249;SHT31;63247;54.300;18.592;2022-09-09T04:19:18;11.04;97.79
67249;SHT31;63247;54.300;18.592;2022-09-09T04:21:44;11.03;97.95
67249;SHT31;63247;54.300;18.592;2022-09-09T04:24:09;11.03;98.22
67249;SHT31;63247;54.300;18.592;2022-09-09T04:26:36;11.12;98.20
67249;SHT31;63247;54.300;18.592;2022-09-09T04:29:03;11.12;98.23
67249;SHT31;63247;54.300;18.592;2022-09-09T04:31:29;11.12;98.29
67249;SHT31;63247;54.300;18.592;2022-09-09T04:33:54;11.14;98.31
67249;SHT31;63247;54.300;18.592;2022-09-09T04:36:20;11.15;98.37
67249;SHT31;63247;54.300;18.592;2022-09-09T04:38:46;11.19;98.38
67249;SHT31;63247;54.300;18.592;2022-09-09T04:41:13;11.12;98.33
67249;SHT31;63247;54.300;18.592;2022-09-09T04:43:39;11.17;98.31
67249;SHT31;63247;54.300;18.592;2022-09-09T04:46:05;11.17;98.45
67249;SHT31;63247;54.300;18.592;2022-09-09T04:48:31;11.10;98.46
67249;SHT31;63247;54.300;18.592;2022-09-09T04:51:08;11.11;98.42
67249;SHT31;63247;54.300;18.592;2022-09-09T04:53:34;11.12;98.47
67249;SHT31;63247;54.300;18.592;2022-09-09T04:56:14;11.07;98.39
67249;SHT31;63247;54.300;18.592;2022-09-09T04:58:40;11.10;98.38
67249;SHT31;63247;54.300;18.592;2022-09-09T05:01:10;11.10;98.28
67249;SHT31;63247;54.300;18.592;2022-09-09T05:03:36;11.07;97.85
67249;SHT31;63247;54.300;18.592;2022-09-09T05:06:14;11.07;97.78
67249;SHT31;63247;54.300;18.592;2022-09-09T05:08:42;11.03;97.67
67249;SHT31;63247;54.300;18.592;2022-09-09T05:13:44;11.06;97.61
67249;SHT31;63247;54.300;18.592;2022-09-09T05:16:10;11.04;97.63
67249;SHT31;63247;54.300;18.592;2022-09-09T05:18:39;11.04;97.63
67249;SHT31;63247;54.300;18.592;2022-09-09T05:21:07;11.06;97.62
67249;SHT31;63247;54.300;18.592;2022-09-09T05:23:33;11.07;97.64
67249;SHT31;63247;54.300;18.592;2022-09-09T05:25:59;11.07;97.76
67249;SHT31;63247;54.300;18.592;2022-09-09T05:28:25;11.04;97.53
67249;SHT31;63247;54.300;18.592;2022-09-09T05:30:59;11.07;97.78
67249;SHT31;63247;54.300;18.592;2022-09-09T05:33:26;11.00;97.76
67249;SHT31;63247;54.300;18.592;2022-09-09T05:35:59;11.01;97.92
67249;SHT31;63247;54.300;18.592;2022-09-09T05:38:26;11.01;97.98
67249;SHT31;63247;54.300;18.592;2022-09-09T05:40:53;10.97;97.90
67249;SHT31;63247;54.300;18.592;2022-09-09T05:43:20;11.03;98.08
67249;SHT31;63247;54.300;18.592;2022-09-09T05:45:47;10.93;98.13
67249;SHT31;63247;54.300;18.592;2022-09-09T05:48:16;10.91;97.84
67249;SHT31;63247;54.300;18.592;2022-09-09T05:50:42;10.91;97.85
67249;SHT31;63247;54.300;18.592;2022-09-09T05:53:09;10.81;97.84
67249;SHT31;63247;54.300;18.592;2022-09-09T05:55:36;10.74;97.47
67249;SHT31;63247;54.300;18.592;2022-09-09T05:58:01;10.70;97.57
67249;SHT31;63247;54.300;18.592;2022-09-09T06:00:27;10.69;97.93
67249;SHT31;63247;54.300;18.592;2022-09-09T06:02:56;10.64;98.02
67249;SHT31;63247;54.300;18.592;2022-09-09T06:05:22;10.56;98.09
67249;SHT31;63247;54.300;18.592;2022-09-09T06:07:52;10.63;98.34
67249;SHT31;63247;54.300;18.592;2022-09-09T06:10:18;10.56;98.38
67249;SHT31;63247;54.300;18.592;2022-09-09T06:12:44;10.59;98.18
67249;SHT31;63247;54.300;18.592;2022-09-09T06:15:10;10.59;98.15
67249;SHT31;63247;54.300;18.592;2022-09-09T06:17:35;10.56;98.36
67249;SHT31;63247;54.300;18.592;2022-09-09T06:20:02;10.55;98.34
67249;SHT31;63247;54.300;18.592;2022-09-09T06:22:27;10.53;98.40
67249;SHT31;63247;54.300;18.592;2022-09-09T06:24:53;10.55;98.29
67249;SHT31;63247;54.300;18.592;2022-09-09T06:27:18;10.59;98.26
67249;SHT31;63247;54.300;18.592;2022-09-09T06:29:44;10.55;98.19
67249;SHT31;63247;54.300;18.592;2022-09-09T06:32:09;10.52;98.21
67249;SHT31;63247;54.300;18.592;2022-09-09T06:34:35;10.52;98.18
67249;SHT31;63247;54.300;18.592;2022-09-09T06:37:02;10.49;97.73
67249;SHT31;63247;54.300;18.592;2022-09-09T06:39:28;10.49;98.04
67249;SHT31;63247;54.300;18.592;2022-09-09T06:41:53;10.48;97.65
67249;SHT31;63247;54.300;18.592;2022-09-09T06:44:19;10.48;97.96
67249;SHT31;63247;54.300;18.592;2022-09-09T06:46:45;10.43;97.64
67249;SHT31;63247;54.300;18.592;2022-09-09T06:49:13;10.41;97.28
67249;SHT31;63247;54.300;18.592;2022-09-09T06:51:39;10.38;97.53
67249;SHT31;63247;54.300;18.592;2022-09-09T06:54:12;10.41;97.38
67249;SHT31;63247;54.300;18.592;2022-09-09T06:56:40;10.38;97.72
67249;SHT31;63247;54.300;18.592;2022-09-09T06:59:07;10.41;97.95
67249;SHT31;63247;54.300;18.592;2022-09-09T07:01:36;10.38;97.57
67249;SHT31;63247;54.300;18.592;2022-09-09T07:04:02;10.38;97.76
67249;SHT31;63247;54.300;18.592;2022-09-09T07:06:31;10.41;97.76
67249;SHT31;63247;54.300;18.592;2022-09-09T07:09:03;10.42;97.55
67249;SHT31;63247;54.300;18.592;2022-09-09T07:11:37;10.39;97.65
67249;SHT31;63247;54.300;18.592;2022-09-09T07:14:03;10.42;97.48
67249;SHT31;63247;54.300;18.592;2022-09-09T07:16:28;10.36;97.18
67249;SHT31;63247;54.300;18.592;2022-09-09T07:18:56;10.38;97.12
67249;SHT31;63247;54.300;18.592;2022-09-09T07:21:23;10.36;97.15
67249;SHT31;63247;54.300;18.592;2022-09-09T07:23:49;10.36;96.90
67249;SHT31;63247;54.300;18.592;2022-09-09T07:26:20;10.43;97.54
67249;SHT31;63247;54.300;18.592;2022-09-09T07:28:46;10.33;96.95
67249;SHT31;63247;54.300;18.592;2022-09-09T07:31:14;10.42;97.31
67249;SHT31;63247;54.300;18.592;2022-09-09T07:33:42;10.42;97.32
67249;SHT31;63247;54.300;18.592;2022-09-09T07:36:20;10.42;97.37
67249;SHT31;63247;54.300;18.592;2022-09-09T07:39:12;10.39;97.20
67249;SHT31;63247;54.300;18.592;2022-09-09T07:41:46;10.48;97.52
67249;SHT31;63247;54.300;18.592;2022-09-09T07:44:18;10.42;97.47
67249;SHT31;63247;54.300;18.592;2022-09-09T07:46:46;10.48;97.49
67249;SHT31;63247;54.300;18.592;2022-09-09T07:49:13;10.43;97.65
67249;SHT31;63247;54.300;18.592;2022-09-09T07:51:41;10.43;97.69
67249;SHT31;63247;54.300;18.592;2022-09-09T07:54:10;10.42;97.21
67249;SHT31;63247;54.300;18.592;2022-09-09T07:56:37;10.45;97.27
67249;SHT31;63247;54.300;18.592;2022-09-09T07:59:03;10.46;97.60
67249;SHT31;63247;54.300;18.592;2022-09-09T08:01:43;10.50;97.74
67249;SHT31;63247;54.300;18.592;2022-09-09T08:04:11;10.49;97.61
67249;SHT31;63247;54.300;18.592;2022-09-09T08:06:44;10.53;97.43
67249;SHT31;63247;54.300;18.592;2022-09-09T08:09:10;10.52;97.73
67249;SHT31;63247;54.300;18.592;2022-09-09T08:11:37;10.55;97.73
67249;SHT31;63247;54.300;18.592;2022-09-09T08:14:03;10.53;97.52
67249;SHT31;63247;54.300;18.592;2022-09-09T08:16:31;10.49;97.08
67249;SHT31;63247;54.300;18.592;2022-09-09T08:18:57;10.49;97.50
67249;SHT31;63247;54.300;18.592;2022-09-09T08:21:32;10.53;97.80
67249;SHT31;63247;54.300;18.592;2022-09-09T08:24:00;10.56;97.89
67249;SHT31;63247;54.300;18.592;2022-09-09T08:26:28;10.56;97.83
67249;SHT31;63247;54.300;18.592;2022-09-09T08:28:56;10.59;98.19
67249;SHT31;63247;54.300;18.592;2022-09-09T08:31:24;10.57;97.55
67249;SHT31;63247;54.300;18.592;2022-09-09T08:33:50;10.63;97.99
67249;SHT31;63247;54.300;18.592;2022-09-09T08:36:18;10.56;97.93
67249;SHT31;63247;54.300;18.592;2022-09-09T08:38:47;10.55;97.95
67249;SHT31;63247;54.300;18.592;2022-09-09T08:57:53;10.71;98.03
67249;SHT31;63247;54.300;18.592;2022-09-09T09:00:19;10.77;98.25
67249;SHT31;63247;54.300;18.592;2022-09-09T09:03:05;10.74;98.03
67249;SHT31;63247;54.300;18.592;2022-09-09T09:05:56;10.71;98.07
67249;SHT31;63247;54.300;18.592;2022-09-09T09:08:38;10.69;98.46
67249;SHT31;63247;54.300;18.592;2022-09-09T09:11:07;10.70;98.14
67249;SHT31;63247;54.300;18.592;2022-09-09T09:16:48;10.77;98.13
67249;SHT31;63247;54.300;18.592;2022-09-09T09:19:16;10.74;98.07
67249;SHT31;63247;54.300;18.592;2022-09-09T09:21:44;10.81;98.01
67249;SHT31;63247;54.300;18.592;2022-09-09T09:24:20;10.81;97.92
67249;SHT31;63247;54.300;18.592;2022-09-09T09:26:46;10.80;98.12
67249;SHT31;63247;54.300;18.592;2022-09-09T09:29:15;10.77;98.09
67249;SHT31;63247;54.300;18.592;2022-09-09T09:31:48;10.84;98.30
67249;SHT31;63247;54.300;18.592;2022-09-09T09:34:15;10.79;97.96
67249;SHT31;63247;54.300;18.592;2022-09-09T09:36:45;10.76;98.01
67249;SHT31;63247;54.300;18.592;2022-09-09T09:39:31;10.77;98.18
67249;SHT31;63247;54.300;18.592;2022-09-09T09:42:16;10.80;98.40
67249;SHT31;63247;54.300;18.592;2022-09-09T09:44:43;10.83;98.46
67249;SHT31;63247;54.300;18.592;2022-09-09T09:47:17;10.83;98.52
67249;SHT31;63247;54.300;18.592;2022-09-09T09:49:54;10.91;98.44
67249;SHT31;63247;54.300;18.592;2022-09-09T09:52:25;10.87;98.01
67249;SHT31;63247;54.300;18.592;2022-09-09T09:54:52;11.00;98.25
67249;SHT31;63247;54.300;18.592;2022-09-09T09:57:18;11.06;98.08
67249;SHT31;63247;54.300;18.592;2022-09-09T09:59:48;10.97;97.59
67249;SHT31;63247;54.300;18.592;2022-09-09T10:02:24;11.12;98.16
67249;SHT31;63247;54.300;18.592;2022-09-09T10:05:21;11.15;97.91
67249;SHT31;63247;54.300;18.592;2022-09-09T10:08:20;11.15;97.97
67249;SHT31;63247;54.300;18.592;2022-09-09T10:16:45;11.11;97.18
67249;SHT31;63247;54.300;18.592;2022-09-09T10:30:51;11.35;97.45
67249;SHT31;63247;54.300;18.592;2022-09-09T10:38:57;11.39;97.15
67249;SHT31;63247;54.300;18.592;2022-09-09T10:41:56;11.54;97.18
67249;SHT31;63247;54.300;18.592;2022-09-09T10:55:47;11.51;97.69
67249;SHT31;63247;54.300;18.592;2022-09-09T10:58:27;11.48;97.74
67249;SHT31;63247;54.300;18.592;2022-09-09T11:01:00;11.59;98.02
67249;SHT31;63247;54.300;18.592;2022-09-09T11:03:28;11.59;97.93
67249;SHT31;63247;54.300;18.592;2022-09-09T11:06:04;11.59;97.53
67249;SHT31;63247;54.300;18.592;2022-09-09T11:08:34;11.62;97.69
67249;SHT31;63247;54.300;18.592;2022-09-09T11:11:19;11.66;97.67
67249;SHT31;63247;54.300;18.592;2022-09-09T11:14:14;11.66;97.65
67249;SHT31;63247;54.300;18.592;2022-09-09T11:16:51;11.63;97.75
67249;SHT31;63247;54.300;18.592;2022-09-09T11:21:52;11.70;97.67
67249;SHT31;63247;54.300;18.592;2022-09-09T11:26:50;11.69;98.10
67249;SHT31;63247;54.300;18.592;2022-09-09T11:34:43;11.72;98.01
67249;SHT31;63247;54.300;18.592;2022-09-09T11:40:04;11.77;97.98
67249;SHT31;63247;54.300;18.592;2022-09-09T11:42:33;11.79;97.90
67249;SHT31;63247;54.300;18.592;2022-09-09T11:45:09;11.80;97.88
67249;SHT31;63247;54.300;18.592;2022-09-09T11:47:36;11.73;98.03
67249;SHT31;63247;54.300;18.592;2022-09-09T11:50:45;11.75;97.68
67249;SHT31;63247;54.300;18.592;2022-09-09T11:53:21;11.73;97.94
67249;SHT31;63247;54.300;18.592;2022-09-09T11:55:59;11.75;97.73
67249;SHT31;63247;54.300;18.592;2022-09-09T11:58:25;11.82;97.86
67249;SHT31;63247;54.300;18.592;2022-09-09T12:00:51;11.79;98.01
67249;SHT31;63247;54.300;18.592;2022-09-09T12:06:30;11.72;98.15
67249;SHT31;63247;54.300;18.592;2022-09-09T12:09:18;11.73;98.46
67249;SHT31;63247;54.300;18.592;2022-09-09T12:11:45;11.75;98.38
67249;SHT31;63247;54.300;18.592;2022-09-09T12:14:34;11.66;98.36
67249;SHT31;63247;54.300;18.592;2022-09-09T12:17:18;11.70;98.77
67249;SHT31;63247;54.300;18.592;2022-09-09T12:19:44;11.76;98.51
67249;SHT31;63247;54.300;18.592;2022-09-09T12:27:42;11.63;98.94
67249;SHT31;63247;54.300;18.592;2022-09-09T12:30:14;11.65;98.95
67249;SHT31;63247;54.300;18.592;2022-09-09T12:32:40;11.67;99.04
67249;SHT31;63247;54.300;18.592;2022-09-09T12:35:12;11.63;98.83
67249;SHT31;63247;54.300;18.592;2022-09-09T12:37:51;11.63;98.98
67249;SHT31;63247;54.300;18.592;2022-09-09T12:40:29;11.63;98.97
67249;SHT31;63247;54.300;18.592;2022-09-09T12:42:56;11.73;99.11
67249;SHT31;63247;54.300;18.592;2022-09-09T12:45:28;11.73;99.27
67249;SHT31;63247;54.300;18.592;2022-09-09T12:48:00;11.75;99.36
67249;SHT31;63247;54.300;18.592;2022-09-09T12:50:38;11.69;99.32
67249;SHT31;63247;54.300;18.592;2022-09-09T12:53:19;11.69;99.36
67249;SHT31;63247;54.300;18.592;2022-09-09T12:56:01;11.77;99.57
67249;SHT31;63247;54.300;18.592;2022-09-09T12:58:30;11.80;99.52
67249;SHT31;63247;54.300;18.592;2022-09-09T13:01:01;11.80;99.46
67249;SHT31;63247;54.300;18.592;2022-09-09T13:03:31;11.69;99.48
67249;SHT31;63247;54.300;18.592;2022-09-09T13:06:24;11.77;99.53
67249;SHT31;63247;54.300;18.592;2022-09-09T13:08:51;11.66;99.45
67249;SHT31;63247;54.300;18.592;2022-09-09T13:11:20;11.66;99.42
67249;SHT31;63247;54.300;18.592;2022-09-09T13:13:52;11.72;99.69
67249;SHT31;63247;54.300;18.592;2022-09-09T13:16:28;11.73;99.66
67249;SHT31;63247;54.300;18.592;2022-09-09T13:19:09;11.72;99.71
67249;SHT31;63247;54.300;18.592;2022-09-09T13:21:37;11.77;99.85
67249;SHT31;63247;54.300;18.592;2022-09-09T13:24:21;11.83;99.87
67249;SHT31;63247;54.300;18.592;2022-09-09T13:27:31;11.76;99.69
67249;SHT31;63247;54.300;18.592;2022-09-09T13:29:53;11.76;99.83
67249;SHT31;63247;54.300;18.592;2022-09-09T13:32:23;11.82;99.99
67249;SHT31;63247;54.300;18.592;2022-09-09T13:34:53;11.76;99.89
67249;SHT31;63247;54.300;18.592;2022-09-09T13:37:36;11.72;99.99
67249;SHT31;63247;54.300;18.592;2022-09-09T13:40:03;11.72;99.95
67249;SHT31;63247;54.300;18.592;2022-09-09T13:42:33;11.75;99.99
67249;SHT31;63247;54.300;18.592;2022-09-09T13:45:03;11.73;99.99
67249;SHT31;63247;54.300;18.592;2022-09-09T13:47:34;11.72;99.99
67249;SHT31;63247;54.300;18.592;2022-09-09T13:52:45;11.85;99.99
67249;SHT31;63247;54.300;18.592;2022-09-09T13:55:10;11.82;99.99
67249;SHT31;63247;54.300;18.592;2022-09-09T13:57:36;11.89;99.99
67249;SHT31;63247;54.300;18.592;2022-09-09T14:00:02;11.86;99.99
67249;SHT31;63247;54.300;18.592;2022-09-09T14:02:28;11.82;99.86
67249;SHT31;63247;54.300;18.592;2022-09-09T14:04:53;11.91;99.99
67249;SHT31;63247;54.300;18.592;2022-09-09T14:07:21;11.96;99.99
67249;SHT31;63247;54.300;18.592;2022-09-09T14:09:46;11.91;99.84
67249;SHT31;63247;54.300;18.592;2022-09-09T14:12:16;11.90;99.81
67249;SHT31;63247;54.300;18.592;2022-09-09T14:14:42;11.83;99.85
67249;SHT31;63247;54.300;18.592;2022-09-09T14:17:09;11.86;99.88
67249;SHT31;63247;54.300;18.592;2022-09-09T14:19:35;11.89;99.83
67249;SHT31;63247;54.300;18.592;2022-09-09T14:22:02;11.87;99.98
67249;SHT31;63247;54.300;18.592;2022-09-09T14:24:27;11.87;99.96
67249;SHT31;63247;54.300;18.592;2022-09-09T14:26:53;11.97;99.99
67249;SHT31;63247;54.300;18.592;2022-09-09T14:29:19;11.98;99.96
67249;SHT31;63247;54.300;18.592;2022-09-09T14:31:44;11.97;99.99
67249;SHT31;63247;54.300;18.592;2022-09-09T14:34:10;11.97;99.99
67249;SHT31;63247;54.300;18.592;2022-09-09T14:36:36;11.96;99.99
67249;SHT31;63247;54.300;18.592;2022-09-09T14:39:03;12.00;99.99
67249;SHT31;63247;54.300;18.592;2022-09-09T14:41:29;11.94;99.99
67249;SHT31;63247;54.300;18.592;2022-09-09T14:43:55;11.98;99.99
67249;SHT31;63247;54.300;18.592;2022-09-09T14:46:22;12.01;99.99
67249;SHT31;63247;54.300;18.592;2022-09-09T14:48:48;11.97;99.99
67249;SHT31;63247;54.300;18.592;2022-09-09T14:51:19;11.96;99.99
67249;SHT31;63247;54.300;18.592;2022-09-09T14:53:46;11.97;99.99
67249;SHT31;63247;54.300;18.592;2022-09-09T14:56:20;11.97;99.99
67249;SHT31;63247;54.300;18.592;2022-09-09T14:58:47;12.01;99.99
67249;SHT31;63247;54.300;18.592;2022-09-09T15:01:18;11.97;99.99
67249;SHT31;63247;54.300;18.592;2022-09-09T15:03:55;12.01;99.99
67249;SHT31;63247;54.300;18.592;2022-09-09T15:06:23;12.01;99.99
67249;SHT31;63247;54.300;18.592;2022-09-09T15:08:51;12.08;99.99
67249;SHT31;63247;54.300;18.592;2022-09-09T15:11:17;12.06;99.99
67249;SHT31;63247;54.300;18.592;2022-09-09T15:13:44;12.01;99.99
67249;SHT31;63247;54.300;18.592;2022-09-09T15:16:15;12.07;99.99
67249;SHT31;63247;54.300;18.592;2022-09-09T15:18:41;12.04;99.99
67249;SHT31;63247;54.300;18.592;2022-09-09T15:21:15;11.98;99.99
67249;SHT31;63247;54.300;18.592;2022-09-09T15:23:42;12.06;99.99
67249;SHT31;63247;54.300;18.592;2022-09-09T15:26:08;12.03;99.99
67249;SHT31;63247;54.300;18.592;2022-09-09T15:28:36;12.08;99.99
67249;SHT31;63247;54.300;18.592;2022-09-09T15:31:08;12.08;99.99
67249;SHT31;63247;54.300;18.592;2022-09-09T15:33:34;12.06;99.99
67249;SHT31;63247;54.300;18.592;2022-09-09T15:36:25;12.08;99.99
67249;SHT31;63247;54.300;18.592;2022-09-09T15:38:51;12.12;99.99
67249;SHT31;63247;54.300;18.592;2022-09-09T15:41:19;12.13;99.99
67249;SHT31;63247;54.300;18.592;2022-09-09T15:43:46;12.10;99.99
67249;SHT31;63247;54.300;18.592;2022-09-09T15:49:28;12.16;99.99
67249;SHT31;63247;54.300;18.592;2022-09-09T15:51:58;12.16;99.99
67249;SHT31;63247;54.300;18.592;2022-09-09T15:54:32;12.24;99.99
67249;SHT31;63247;54.300;18.592;2022-09-09T15:57:01;12.24;99.99
67249;SHT31;63247;54.300;18.592;2022-09-09T15:59:30;12.25;99.99
67249;SHT31;63247;54.300;18.592;2022-09-09T16:01:56;12.21;99.99
67249;SHT31;63247;54.300;18.592;2022-09-09T16:04:23;12.24;99.99
67249;SHT31;63247;54.300;18.592;2022-09-09T16:06:54;12.20;99.99
67249;SHT31;63247;54.300;18.592;2022-09-09T16:09:20;12.21;99.99
67249;SHT31;63247;54.300;18.592;2022-09-09T16:11:46;12.27;99.99
67249;SHT31;63247;54.300;18.592;2022-09-09T16:14:12;12.28;99.99
67249;SHT31;63247;54.300;18.592;2022-09-09T16:16:38;12.30;99.99
67249;SHT31;63247;54.300;18.592;2022-09-09T16:19:06;12.33;99.99
67249;SHT31;63247;54.300;18.592;2022-09-09T16:21:36;12.30;99.99
67249;SHT31;63247;54.300;18.592;2022-09-09T16:24:04;12.28;99.99
67249;SHT31;63247;54.300;18.592;2022-09-09T16:26:33;12.27;99.99
67249;SHT31;63247;54.300;18.592;2022-09-09T16:28:59;12.33;99.99
67249;SHT31;63247;54.300;18.592;2022-09-09T16:31:27;12.33;99.99
67249;SHT31;63247;54.300;18.592;2022-09-09T16:33:53;12.31;99.99
67249;SHT31;63247;54.300;18.592;2022-09-09T16:36:29;12.30;99.99
67249;SHT31;63247;54.300;18.592;2022-09-09T16:39:00;12.33;99.99
67249;SHT31;63247;54.300;18.592;2022-09-09T16:41:27;12.33;99.99
67249;SHT31;63247;54.300;18.592;2022-09-09T16:43:58;12.35;99.99
67249;SHT31;63247;54.300;18.592;2022-09-09T16:46:25;12.33;99.99
67249;SHT31;63247;54.300;18.592;2022-09-09T16:48:51;12.33;99.99
67249;SHT31;63247;54.300;18.592;2022-09-09T16:51:22;12.30;99.99
67249;SHT31;63247;54.300;18.592;2022-09-09T16:53:49;12.31;99.99
67249;SHT31;63247;54.300;18.592;2022-09-09T16:56:18;12.35;99.99
67249;SHT31;63247;54.300;18.592;2022-09-09T16:58:49;12.30;99.99
67249;SHT31;63247;54.300;18.592;2022-09-09T17:01:15;12.25;99.99
67249;SHT31;63247;54.300;18.592;2022-09-09T17:03:41;12.30;99.99
67249;SHT31;63247;54.300;18.592;2022-09-09T17:06:12;12.27;99.99
67249;SHT31;63247;54.300;18.592;2022-09-09T17:08:38;12.33;99.99
67249;SHT31;63247;54.300;18.592;2022-09-09T17:11:17;12.30;99.99
67249;SHT31;63247;54.300;18.592;2022-09-09T17:13:46;12.38;99.99
67249;SHT31;63247;54.300;18.592;2022-09-09T17:16:14;12.37;99.99
67249;SHT31;63247;54.300;18.592;2022-09-09T17:18:40;12.33;99.99
67249;SHT31;63247;54.300;18.592;2022-09-09T17:21:13;12.42;99.99
67249;SHT31;63247;54.300;18.592;2022-09-09T17:23:40;12.38;99.99
67249;SHT31;63247;54.300;18.592;2022-09-09T17:26:10;12.40;99.99
67249;SHT31;63247;54.300;18.592;2022-09-09T17:28:37;12.41;99.99
67249;SHT31;63247;54.300;18.592;2022-09-09T17:31:08;12.35;99.99
67249;SHT31;63247;54.300;18.592;2022-09-09T17:33:36;12.42;99.99
67249;SHT31;63247;54.300;18.592;2022-09-09T17:38:40;12.44;99.99
67249;SHT31;63247;54.300;18.592;2022-09-09T17:43:42;12.46;99.99
67249;SHT31;63247;54.300;18.592;2022-09-09T17:48:35;12.49;99.99
67249;SHT31;63247;54.300;18.592;2022-09-09T17:51:03;12.51;99.99
67249;SHT31;63247;54.300;18.592;2022-09-09T17:53:29;12.48;99.99
67249;SHT31;63247;54.300;18.592;2022-09-09T17:56:02;12.49;99.99